Terminal Aerodrome Forecast
Issued by NWS

Home | Current Version | Previous Version | Text Only | Print | Product List | Glossary On
Versions: 1 2 3 4 5 6 7 8 9 10 11 12 13
000
FTUS45 KGJT 052352
TAFTEX
TAF
KTEX 052352Z 0600/0624 17012G20KT P6SM VCSH SCT090 BKN200
     FM060200 16008KT P6SM SCT100 BKN200
     FM060600 12004KT P6SM SCT100 BKN200
     FM061700 16015G25KT P6SM VCSH SCT100 BKN150=

USA.gov is the U.S. government's official web portal to all federal, state and local government web resources and services.